Ana Sayfa
METAR-TAF:

METAR-TAF

Havaalanları :

De Aar, Güney Afrika

Enlem: 30-40-29S, Boylam: 23-59-57E, yükseklik: 1286 m

Güncel hava durumu gözlemi

Rapor saat 06:44 UTC de 54 dakika önce yapıldı.
Rüzgar kuzeydoğudan 3 kt
Sıcaklık 16°C
Nem 13%
Basınç 1023 hPa
Görüş mesafesi 10 km veya daha fazla
1500 m altında bulut yok ve kümülonimbus yok

METAR: FADY 150644Z 05003KT CAVOK 16/M12 Q1023

Saat: 09:38 (07:38 UTC)


TAF: eksik

4.000'den fazla havaalanı için hava durumu gözlemleri ve tahminleri (METAR ve TAF raporları).

Kullanılabilir istasyonlar harita üzerinde sarı ve kırmızı noktalarla gösterilir.

İstasyonun adını görmek için fareyi noktanın üzerinde gezdirin.

Sonrasında hava gözlem ve tahminlerini görmek için tıklayın.

Haritayı değiştirmek için: yaklaştırmak için siyah artı işaretli yeşil düğmeye ve uzaklaştırmak için de eksi işaretli düğmeye hızla tıklayın; bitişik haritalar için yeşil okları kullanın.


METAR-TAF: